createdAt,value
2022-07-29T00:00:25.029Z,101936.19
2022-07-29T00:03:27.978Z,101943.09
2022-07-29T00:06:36.317Z,101939.63
2022-07-29T00:09:51.086Z,101942.31
2022-07-29T00:12:59.677Z,101937.13
2022-07-29T00:16:04.849Z,101938.88
2022-07-29T00:19:12.756Z,101934.59
2022-07-29T00:22:13.373Z,101931.16
2022-07-29T00:25:25.992Z,101932.88
2022-07-29T00:28:25.881Z,101933.75
2022-07-29T00:31:37.775Z,101929.41
2022-07-29T00:35:03.423Z,101926.88
2022-07-29T00:38:10.051Z,101926.03
2022-07-29T00:41:09.994Z,101924.28
2022-07-29T00:44:17.208Z,101920.84
2022-07-29T00:47:21.782Z,101913.06
2022-07-29T00:50:29.849Z,101915.69
2022-07-29T00:53:29.758Z,101918.28
2022-07-29T00:56:43.701Z,101920.03
2022-07-29T00:59:44.516Z,101920.94
2022-07-29T01:02:52.693Z,101911.41
2022-07-29T01:06:02.820Z,101911.41
2022-07-29T01:09:10.650Z,101903.63
2022-07-29T01:12:11.968Z,101901.91
2022-07-29T01:15:18.071Z,101900.19
2022-07-29T01:18:40.658Z,101895.84
2022-07-29T01:22:01.052Z,101899.31
2022-07-29T01:25:21.257Z,101890.69
2022-07-29T01:28:54.074Z,101890.66
2022-07-29T01:32:27.658Z,101891.53
2022-07-29T01:35:34.130Z,101882.00
2022-07-29T01:38:43.748Z,101883.72
2022-07-29T01:41:50.601Z,101874.19
2022-07-29T01:45:08.673Z,101873.31
2022-07-29T01:48:21.689Z,101873.31
2022-07-29T01:51:28.333Z,101866.41
2022-07-29T01:54:40.689Z,101871.56
2022-07-29T01:57:45.506Z,101864.69
2022-07-29T02:00:57.688Z,101863.78
2022-07-29T02:04:05.694Z,101859.50
2022-07-29T02:07:10.557Z,101856.91
2022-07-29T02:10:19.669Z,101848.22
2022-07-29T02:13:34.066Z,101849.94
2022-07-29T02:16:38.092Z,101843.00
2022-07-29T02:19:46.668Z,101850.81
2022-07-29T02:22:47.769Z,101846.53
2022-07-29T02:25:56.646Z,101843.03
2022-07-29T02:29:05.873Z,101839.59
2022-07-29T02:32:18.182Z,101842.19
2022-07-29T02:35:20.770Z,101840.44
2022-07-29T02:38:47.011Z,101831.78
2022-07-29T02:41:50.766Z,101842.19
2022-07-29T02:44:59.227Z,101830.03
2022-07-29T02:48:12.890Z,101837.81
2022-07-29T02:51:43.433Z,101831.78
2022-07-29T02:54:52.723Z,101825.69
2022-07-29T02:57:57.829Z,101824.84
2022-07-29T03:01:09.802Z,101820.47
2022-07-29T03:04:32.923Z,101819.56
2022-07-29T03:07:41.819Z,101824.75
2022-07-29T03:10:46.215Z,101821.25
2022-07-29T03:13:52.713Z,101813.47
2022-07-29T03:17:00.737Z,101813.44
2022-07-29T03:20:06.489Z,101813.34
2022-07-29T03:23:16.151Z,101816.78
2022-07-29T03:26:17.318Z,101822.00
2022-07-29T03:29:33.981Z,101820.22
2022-07-29T03:32:37.782Z,101821.06
2022-07-29T03:41:45.734Z,101808.00
2022-07-29T03:44:50.208Z,101807.09
2022-07-29T03:48:03.066Z,101812.28
2022-07-29T03:51:12.030Z,101800.13
2022-07-29T03:54:13.584Z,101808.75
2022-07-29T03:57:22.773Z,101805.34
2022-07-29T04:00:24.162Z,101811.31
2022-07-29T04:03:53.596Z,101808.72
2022-07-29T04:06:56.831Z,101807.78
2022-07-29T04:10:11.013Z,101812.94
2022-07-29T04:13:14.643Z,101810.25
2022-07-29T04:16:22.164Z,101818.88
2022-07-29T04:19:32.206Z,101814.44
2022-07-29T04:22:42.779Z,101811.75
2022-07-29T04:25:55.631Z,101816.88
2022-07-29T04:28:57.663Z,101814.19
2022-07-29T04:32:10.780Z,101808.91
2022-07-29T04:35:10.999Z,101817.63
2022-07-29T04:38:19.670Z,101815.00
2022-07-29T04:41:35.044Z,101809.75
2022-07-29T04:44:44.670Z,101802.66
2022-07-29T04:47:50.498Z,101808.56
2022-07-29T04:50:59.818Z,101808.31
2022-07-29T04:54:02.013Z,101804.72
2022-07-29T04:57:08.907Z,101802.63
2022-07-29T05:00:15.115Z,101802.75
2022-07-29T05:03:37.630Z,101799.47
2022-07-29T05:06:43.211Z,101802.53
2022-07-29T05:09:52.730Z,101799.13
2022-07-29T05:12:56.899Z,101806.34
2022-07-29T05:16:13.759Z,101802.44
2022-07-29T05:19:14.690Z,101804.13
2022-07-29T05:22:21.928Z,101808.44
2022-07-29T05:25:45.751Z,101812.34
2022-07-29T05:28:52.858Z,101811.34
2022-07-29T05:32:05.788Z,101810.78
2022-07-29T05:35:08.102Z,101806.22
2022-07-29T05:38:14.880Z,101810.44
2022-07-29T05:41:16.675Z,101808.81
2022-07-29T05:44:25.333Z,101816.34
2022-07-29T05:47:28.449Z,101814.88
2022-07-29T05:50:36.085Z,101817.22
2022-07-29T05:53:48.010Z,101824.44
2022-07-29T05:56:56.747Z,101822.63
2022-07-29T06:00:03.845Z,101818.25
2022-07-29T06:03:12.781Z,101824.69
2022-07-29T06:06:25.018Z,101811.31
2022-07-29T06:09:27.189Z,101817.41
2022-07-29T06:12:34.022Z,101817.91
2022-07-29T06:15:35.235Z,101807.13
2022-07-29T06:18:45.064Z,101805.72
2022-07-29T06:22:00.933Z,101810.75
2022-07-29T06:25:18.167Z,101804.13
2022-07-29T06:28:21.203Z,101804.09
2022-07-29T06:31:31.020Z,101800.19
2022-07-29T06:34:52.203Z,101800.53
2022-07-29T06:38:31.649Z,101800.16
2022-07-29T06:41:39.591Z,101795.63
2022-07-29T06:44:50.619Z,101801.06
2022-07-29T06:47:53.044Z,101798.81
2022-07-29T06:50:59.187Z,101803.75
2022-07-29T06:54:15.743Z,101802.31
2022-07-29T06:57:32.648Z,101800.63
2022-07-29T07:00:41.857Z,101792.34
2022-07-29T07:08:59.652Z,101788.47
2022-07-29T07:25:26.700Z,101769.81
2022-07-29T07:28:35.846Z,101775.03
2022-07-29T07:32:00.476Z,101772.72
2022-07-29T07:35:34.490Z,101764.97
2022-07-29T08:48:36.502Z,101754.38
2022-07-29T09:00:47.879Z,101756.53
2022-07-29T09:03:54.138Z,101757.03
2022-07-29T09:07:12.138Z,101750.03
2022-07-29T09:10:29.057Z,101754.91
2022-07-29T09:14:13.387Z,101755.34
2022-07-29T09:17:29.163Z,101743.00
2022-07-29T09:20:54.724Z,101749.81
2022-07-29T09:27:41.716Z,101739.69
2022-07-29T09:30:46.971Z,101742.41
2022-07-29T09:34:09.196Z,101741.25
2022-07-29T10:03:19.277Z,101758.97
2022-07-29T10:33:52.535Z,101715.03
2022-07-29T10:55:19.049Z,101708.34
2022-07-29T11:44:05.928Z,101690.28
2022-07-29T12:19:03.602Z,101654.81
2022-07-29T12:44:33.680Z,101647.94
2022-07-29T13:05:33.093Z,101643.78
2022-07-29T13:13:09.538Z,101630.22
2022-07-29T13:45:42.180Z,101632.16
2022-07-29T14:11:41.222Z,101623.47
2022-07-29T14:28:09.043Z,101631.41
2022-07-29T14:32:16.170Z,101629.34
2022-07-29T14:36:32.443Z,101634.88
2022-07-29T15:06:31.696Z,101605.91
2022-07-29T15:36:21.219Z,101598.69
2022-07-29T15:40:34.478Z,101599.19
2022-07-29T16:26:35.911Z,101572.75
2022-07-29T16:34:37.610Z,101571.22
2022-07-29T16:42:45.973Z,101566.91
2022-07-29T16:46:18.521Z,101561.44
2022-07-29T16:49:47.709Z,101563.09
2022-07-29T16:59:59.943Z,101568.47
2022-07-29T17:03:08.610Z,101565.28
2022-07-29T17:06:21.945Z,101553.94
2022-07-29T17:09:40.207Z,101557.91
2022-07-29T17:13:03.458Z,101556.13
2022-07-29T17:16:20.122Z,101563.25
2022-07-29T17:19:48.733Z,101552.63
2022-07-29T17:22:54.411Z,101552.69
2022-07-29T17:26:04.782Z,101556.63
2022-07-29T17:29:09.284Z,101560.78
2022-07-29T17:32:34.329Z,101554.84
2022-07-29T17:35:58.006Z,101561.50
2022-07-29T17:39:04.062Z,101565.31
2022-07-29T17:42:12.803Z,101560.09
2022-07-29T17:45:16.177Z,101563.84
2022-07-29T17:48:24.851Z,101564.81
2022-07-29T17:51:41.309Z,101562.59
2022-07-29T17:54:57.751Z,101563.50
2022-07-29T17:58:09.933Z,101564.59
2022-07-29T18:01:13.580Z,101563.50
2022-07-29T18:07:57.987Z,101564.06
2022-07-29T18:11:16.767Z,101560.31
2022-07-29T18:14:20.560Z,101563.03
2022-07-29T18:17:52.778Z,101553.72
2022-07-29T18:21:10.991Z,101543.50
2022-07-29T18:24:16.243Z,101540.78
2022-07-29T18:27:31.907Z,101543.94
2022-07-29T18:30:34.083Z,101536.50
2022-07-29T18:33:47.272Z,101541.91
2022-07-29T18:37:13.635Z,101541.44
2022-07-29T18:40:24.269Z,101541.00
2022-07-29T18:43:31.853Z,101537.69
2022-07-29T18:46:32.121Z,101537.22
2022-07-29T18:49:42.867Z,101538.56
2022-07-29T18:52:46.767Z,101543.25
2022-07-29T18:56:00.075Z,101529.47
2022-07-29T18:59:17.152Z,101537.59
2022-07-29T19:02:23.948Z,101539.44
2022-07-29T19:05:31.893Z,101544.13
2022-07-29T19:08:36.245Z,101547.09
2022-07-29T19:11:46.803Z,101545.66
2022-07-29T19:14:54.338Z,101553.63
2022-07-29T19:18:12.706Z,101556.66
2022-07-29T19:21:13.819Z,101569.88
2022-07-29T19:24:22.952Z,101571.94
2022-07-29T19:27:32.961Z,101574.81
2022-07-29T19:30:41.066Z,101567.94
2022-07-29T19:33:51.933Z,101578.50
2022-07-29T19:37:20.657Z,101587.72
2022-07-29T19:40:27.125Z,101584.69
2022-07-29T19:43:51.528Z,101592.91
2022-07-29T19:46:57.565Z,101583.75
2022-07-29T19:50:09.067Z,101581.97
2022-07-29T19:53:09.532Z,101584.06
2022-07-29T19:56:42.359Z,101580.03
2022-07-29T19:59:44.289Z,101577.59
2022-07-29T20:02:57.605Z,101574.41
2022-07-29T20:06:08.373Z,101580.81
2022-07-29T20:09:17.072Z,101578.25
2022-07-29T20:12:24.246Z,101576.63
2022-07-29T20:19:13.934Z,101567.41
2022-07-29T20:23:10.475Z,101561.56
2022-07-29T20:26:29.128Z,101562.47
2022-07-29T20:33:13.480Z,101569.09
2022-07-29T20:40:27.435Z,101570.50
2022-07-29T20:43:47.502Z,101573.06
2022-07-29T20:46:53.548Z,101576.75
2022-07-29T20:50:07.762Z,101575.16
2022-07-29T20:53:25.869Z,101576.84
2022-07-29T20:56:32.084Z,101576.66
2022-07-29T20:59:55.176Z,101578.84
2022-07-29T21:03:00.797Z,101578.94
2022-07-29T21:06:15.272Z,101583.25
2022-07-29T21:13:21.230Z,101584.25
2022-07-29T21:16:32.130Z,101579.84
2022-07-29T21:19:39.346Z,101592.78
2022-07-29T21:22:51.742Z,101585.28
2022-07-29T21:25:54.557Z,101590.44
2022-07-29T21:29:05.954Z,101590.38
2022-07-29T21:32:14.839Z,101580.97
2022-07-29T21:36:06.658Z,101580.19
2022-07-29T21:39:13.998Z,101582.13
2022-07-29T21:42:41.565Z,101578.56
2022-07-29T21:50:23.112Z,101585.00
2022-07-29T21:53:26.967Z,101582.31
2022-07-29T21:56:51.319Z,101585.91
2022-07-29T22:00:15.926Z,101588.81
2022-07-29T22:06:55.161Z,101581.25
2022-07-29T22:10:06.244Z,101585.84
2022-07-29T22:16:52.755Z,101583.53
2022-07-29T22:20:09.790Z,101580.34
2022-07-29T22:23:37.365Z,101577.03
2022-07-29T22:26:37.297Z,101571.88
2022-07-29T22:30:10.124Z,101574.59
2022-07-29T22:33:17.624Z,101567.47
2022-07-29T22:36:45.086Z,101564.91
2022-07-29T22:40:05.988Z,101577.00
2022-07-29T22:43:14.814Z,101581.44
2022-07-29T22:46:36.688Z,101572.72
2022-07-29T22:49:45.539Z,101573.81
2022-07-29T22:56:35.776Z,101561.53
2022-07-29T22:59:41.857Z,101559.16
2022-07-29T23:02:58.849Z,101562.91
2022-07-29T23:06:24.467Z,101565.66
2022-07-29T23:09:35.974Z,101568.47
2022-07-29T23:12:49.334Z,101554.47
2022-07-29T23:16:08.209Z,101560.97
2022-07-29T23:19:25.198Z,101560.31
2022-07-29T23:22:41.600Z,101558.75
2022-07-29T23:26:10.799Z,101556.28
2022-07-29T23:29:18.563Z,101557.19
2022-07-29T23:32:31.137Z,101558.19
2022-07-29T23:35:36.201Z,101563.31
2022-07-29T23:42:21.760Z,101564.13
2022-07-29T23:45:42.874Z,101558.88
2022-07-29T23:49:19.741Z,101561.25
2022-07-29T23:52:36.990Z,101557.38
2022-07-29T23:55:46.860Z,101565.22
2022-07-29T23:58:52.627Z,101559.00
